createdAt,value
2022-08-29T00:00:22.059Z,53.14
2022-08-29T00:03:11.285Z,53.15
2022-08-29T00:05:59.323Z,53.27
2022-08-29T00:08:48.685Z,53.60
2022-08-29T00:11:36.730Z,53.51
2022-08-29T00:14:31.477Z,53.88
2022-08-29T00:17:19.447Z,54.00
2022-08-29T00:20:10.505Z,53.73
2022-08-29T00:22:58.952Z,54.06
2022-08-29T00:25:48.341Z,54.22
2022-08-29T00:28:36.591Z,54.47
2022-08-29T00:31:24.671Z,54.98
2022-08-29T00:34:12.718Z,55.08
2022-08-29T00:37:00.891Z,55.38
2022-08-29T00:39:48.849Z,56.13
2022-08-29T00:42:38.215Z,55.74
2022-08-29T00:45:26.455Z,55.22
2022-08-29T00:48:16.640Z,54.73
2022-08-29T00:51:08.624Z,55.67
2022-08-29T00:54:01.797Z,56.49
2022-08-29T00:56:51.652Z,57.33
2022-08-29T00:59:42.180Z,58.20
2022-08-29T01:02:30.361Z,59.59
2022-08-29T01:05:19.848Z,60.19
2022-08-29T01:08:08.146Z,61.46
2022-08-29T01:11:14.006Z,62.21
2022-08-29T01:14:03.386Z,62.86
2022-08-29T01:16:56.976Z,65.21
2022-08-29T01:19:50.896Z,65.34
2022-08-29T01:22:50.826Z,65.39
2022-08-29T01:25:46.127Z,65.70
2022-08-29T01:28:37.338Z,65.97
2022-08-29T01:31:37.723Z,67.02
2022-08-29T01:34:35.601Z,68.69
2022-08-29T01:37:24.340Z,69.60
2022-08-29T01:40:14.200Z,69.96
2022-08-29T01:43:03.621Z,70.57
2022-08-29T01:45:52.238Z,72.60
2022-08-29T01:48:42.172Z,72.17
2022-08-29T01:51:30.229Z,73.15
2022-08-29T01:54:19.385Z,74.21
2022-08-29T01:57:12.677Z,73.83
2022-08-29T02:00:03.304Z,75.89
2022-08-29T02:02:53.252Z,76.56
2022-08-29T02:05:41.304Z,77.89
2022-08-29T02:08:29.475Z,78.87
2022-08-29T02:11:18.266Z,79.94
2022-08-29T02:14:06.533Z,80.84
2022-08-29T02:16:56.152Z,82.12
2022-08-29T02:19:44.328Z,82.61
2022-08-29T02:22:32.372Z,83.13
2022-08-29T02:25:38.666Z,84.07
2022-08-29T02:28:26.716Z,84.58
2022-08-29T02:31:14.786Z,86.43
2022-08-29T02:34:04.170Z,86.25
2022-08-29T02:36:53.091Z,87.28
2022-08-29T02:39:41.120Z,86.87
2022-08-29T02:42:29.141Z,88.46
2022-08-29T02:45:17.190Z,88.96
2022-08-29T02:48:05.905Z,89.57
2022-08-29T02:50:58.448Z,89.52
2022-08-29T02:53:46.452Z,91.26
2022-08-29T02:56:34.888Z,91.95
2022-08-29T02:59:22.990Z,91.27
2022-08-29T03:02:11.099Z,92.70
2022-08-29T03:04:59.985Z,93.94
2022-08-29T03:07:51.060Z,94.48
2022-08-29T03:10:39.202Z,95.35
2022-08-29T03:13:27.217Z,95.52
2022-08-29T03:16:15.865Z,96.35
2022-08-29T03:19:04.100Z,96.21
2022-08-29T03:21:52.079Z,96.37
2022-08-29T03:24:41.585Z,96.97
2022-08-29T03:27:29.607Z,98.27
2022-08-29T03:30:18.949Z,97.56
2022-08-29T03:33:11.523Z,99.50
2022-08-29T03:35:59.840Z,99.57
2022-08-29T03:38:49.038Z,99.17
2022-08-29T03:41:38.435Z,98.72
2022-08-29T03:44:27.173Z,98.90
2022-08-29T03:47:16.620Z,99.69
2022-08-29T03:50:05.723Z,97.88
2022-08-29T03:52:53.768Z,97.95
2022-08-29T03:55:42.166Z,97.22
2022-08-29T03:58:31.465Z,97.61
2022-08-29T04:01:19.586Z,98.18
2022-08-29T04:04:07.557Z,97.63
2022-08-29T04:06:55.577Z,97.06
2022-08-29T04:09:43.564Z,95.97
2022-08-29T04:12:31.613Z,96.91
2022-08-29T04:15:21.347Z,97.88
2022-08-29T04:18:11.774Z,98.32
2022-08-29T04:21:03.060Z,98.48
2022-08-29T04:23:51.086Z,100.00
2022-08-29T04:26:40.288Z,100.00
2022-08-29T04:29:29.315Z,100.00
2022-08-29T04:32:19.848Z,100.00
2022-08-29T04:35:09.424Z,100.00
2022-08-29T04:37:57.889Z,100.00
2022-08-29T04:40:46.187Z,100.00
2022-08-29T04:43:34.358Z,100.00
2022-08-29T04:46:24.089Z,100.00
2022-08-29T04:49:14.121Z,100.00
2022-08-29T04:52:02.093Z,100.00
2022-08-29T04:54:50.221Z,100.00
2022-08-29T04:57:39.186Z,100.00
2022-08-29T05:00:30.367Z,100.00
2022-08-29T05:03:18.708Z,100.00
2022-08-29T05:06:11.031Z,100.00
2022-08-29T05:09:00.186Z,100.00
2022-08-29T05:11:48.818Z,100.00
2022-08-29T05:14:37.260Z,100.00
2022-08-29T05:17:25.805Z,100.00
2022-08-29T05:20:14.453Z,100.00
2022-08-29T05:23:03.796Z,100.00
2022-08-29T05:25:56.800Z,100.00
2022-08-29T05:28:47.029Z,100.00
2022-08-29T05:31:36.664Z,100.00
2022-08-29T05:34:33.892Z,100.00
2022-08-29T05:37:23.238Z,100.00
2022-08-29T05:40:12.811Z,100.00
2022-08-29T05:43:00.837Z,100.00
2022-08-29T05:45:48.906Z,100.00
2022-08-29T05:48:40.379Z,100.00
2022-08-29T05:51:28.497Z,100.00
2022-08-29T05:54:16.532Z,98.48
2022-08-29T05:57:06.954Z,98.04
2022-08-29T05:59:55.738Z,94.30
2022-08-29T06:02:43.819Z,93.36
2022-08-29T06:05:31.980Z,93.03
2022-08-29T06:08:21.069Z,91.89
2022-08-29T06:11:15.542Z,90.00
2022-08-29T06:14:05.106Z,86.53
2022-08-29T06:16:53.926Z,85.34
2022-08-29T06:19:42.518Z,83.68
2022-08-29T06:22:31.018Z,80.06
2022-08-29T06:25:38.561Z,76.56
2022-08-29T06:28:27.671Z,77.96
2022-08-29T06:31:21.486Z,78.45
2022-08-29T06:34:10.671Z,76.86
2022-08-29T06:36:59.402Z,76.29
2022-08-29T06:39:47.416Z,75.40
2022-08-29T06:42:35.413Z,74.31
2022-08-29T06:45:27.459Z,72.75
2022-08-29T06:48:17.007Z,70.43
2022-08-29T06:51:05.251Z,69.07
2022-08-29T06:53:53.570Z,72.35
2022-08-29T06:56:42.462Z,65.46
2022-08-29T06:59:30.612Z,65.24
2022-08-29T07:02:18.797Z,61.09
2022-08-29T07:05:09.352Z,64.46
2022-08-29T07:07:58.471Z,61.73
2022-08-29T07:10:46.688Z,60.28
2022-08-29T07:13:35.539Z,59.78
2022-08-29T07:16:23.820Z,58.50
2022-08-29T07:19:14.439Z,57.07
2022-08-29T07:22:03.920Z,58.92
2022-08-29T07:24:52.004Z,57.85
2022-08-29T07:27:40.082Z,56.65
2022-08-29T07:30:28.742Z,56.67
2022-08-29T07:33:16.979Z,56.28
2022-08-29T07:36:05.865Z,55.58
2022-08-29T07:38:55.262Z,54.97
2022-08-29T07:41:44.844Z,54.01
2022-08-29T07:44:34.407Z,53.92
2022-08-29T07:47:26.534Z,53.90
2022-08-29T07:50:17.003Z,51.92
2022-08-29T07:53:05.386Z,51.26
2022-08-29T07:55:54.732Z,50.50
2022-08-29T07:58:43.678Z,50.07
2022-08-29T08:01:31.871Z,49.44
2022-08-29T08:04:19.956Z,48.65
2022-08-29T08:07:13.509Z,47.75
2022-08-29T08:10:02.527Z,47.96
2022-08-29T08:12:52.266Z,47.50
2022-08-29T08:15:40.556Z,47.35
2022-08-29T08:18:29.707Z,46.97
2022-08-29T08:21:17.746Z,47.31
2022-08-29T08:24:06.408Z,46.91
2022-08-29T08:26:55.995Z,46.55
2022-08-29T08:29:46.174Z,47.19
2022-08-29T08:32:34.188Z,46.58
2022-08-29T08:35:22.927Z,46.72
2022-08-29T08:38:11.509Z,46.31
2022-08-29T08:41:05.646Z,46.03
2022-08-29T08:43:57.460Z,45.14
2022-08-29T08:46:52.393Z,45.14
2022-08-29T08:49:46.382Z,44.53
2022-08-29T08:52:42.176Z,44.71
2022-08-29T08:55:40.491Z,45.51
2022-08-29T08:58:34.555Z,45.15
2022-08-29T09:01:27.970Z,45.15
2022-08-29T09:04:38.629Z,44.56
2022-08-29T09:07:46.312Z,44.34
2022-08-29T09:10:45.880Z,44.47
2022-08-29T09:13:46.767Z,44.11
2022-08-29T09:16:40.730Z,44.39
2022-08-29T09:19:31.818Z,43.86
2022-08-29T09:22:26.594Z,43.67
2022-08-29T09:25:20.017Z,43.89
2022-08-29T09:28:09.839Z,43.87
2022-08-29T09:31:21.491Z,44.73
2022-08-29T09:34:12.811Z,44.44
2022-08-29T09:37:02.388Z,44.07
2022-08-29T09:39:59.071Z,44.45
2022-08-29T09:43:01.618Z,44.33
2022-08-29T09:46:17.424Z,43.92
2022-08-29T09:49:14.521Z,44.28
2022-08-29T09:52:14.921Z,43.05
2022-08-29T09:55:28.482Z,42.87
2022-08-29T09:58:31.001Z,43.97
2022-08-29T10:01:26.969Z,43.23
2022-08-29T10:04:37.974Z,43.43
2022-08-29T10:07:30.444Z,43.14
2022-08-29T10:10:21.574Z,43.36
2022-08-29T10:13:15.340Z,42.85
2022-08-29T10:16:15.558Z,42.16
2022-08-29T10:19:05.976Z,42.43
2022-08-29T10:22:03.313Z,41.16
2022-08-29T10:25:01.422Z,40.90
2022-08-29T10:27:55.705Z,40.80
2022-08-29T10:30:53.125Z,40.40
2022-08-29T10:34:05.020Z,40.10
2022-08-29T10:37:00.838Z,40.32
2022-08-29T10:39:58.393Z,39.07
2022-08-29T10:42:50.858Z,39.07
2022-08-29T10:45:56.263Z,39.16
2022-08-29T10:48:55.821Z,38.88
2022-08-29T10:51:52.857Z,37.82
2022-08-29T10:54:51.866Z,37.98
2022-08-29T10:57:53.206Z,38.56
2022-08-29T11:00:46.513Z,38.75
2022-08-29T11:03:42.241Z,37.40
2022-08-29T11:09:30.747Z,36.84
2022-08-29T11:12:22.447Z,36.24
2022-08-29T11:15:23.896Z,36.31
2022-08-29T11:18:22.578Z,35.57
2022-08-29T11:21:24.111Z,35.66
2022-08-29T11:24:13.437Z,35.19
2022-08-29T11:27:11.076Z,34.74
2022-08-29T11:30:05.105Z,34.85
2022-08-29T11:33:04.976Z,33.80
2022-08-29T11:36:08.319Z,33.63
2022-08-29T11:39:35.355Z,33.44
2022-08-29T11:45:40.642Z,33.17
2022-08-29T11:48:37.395Z,32.34
2022-08-29T11:51:34.852Z,32.87
2022-08-29T11:55:11.540Z,32.36
2022-08-29T11:58:51.847Z,31.91
2022-08-29T12:02:00.614Z,32.47
2022-08-29T12:04:56.814Z,32.39
2022-08-29T12:07:49.061Z,31.74
2022-08-29T12:10:53.233Z,31.89
2022-08-29T12:14:01.475Z,32.23
2022-08-29T12:16:53.448Z,32.17
2022-08-29T12:19:54.565Z,31.11
2022-08-29T12:22:55.146Z,32.16
2022-08-29T12:25:46.943Z,32.10
2022-08-29T12:28:45.391Z,31.55
2022-08-29T12:32:02.351Z,31.18
2022-08-29T12:35:21.222Z,31.96
2022-08-29T12:38:25.558Z,30.18
2022-08-29T12:41:32.272Z,30.30
2022-08-29T12:44:27.328Z,30.38
2022-08-29T12:47:25.557Z,30.99
2022-08-29T12:50:18.683Z,30.85
2022-08-29T12:53:16.434Z,30.25
2022-08-29T12:56:17.646Z,30.03
2022-08-29T12:59:06.122Z,29.73
2022-08-29T13:01:56.321Z,30.27
2022-08-29T13:04:44.834Z,29.37
2022-08-29T13:07:34.157Z,29.57
2022-08-29T13:10:22.280Z,30.47
2022-08-29T13:13:16.656Z,29.45
2022-08-29T13:16:08.778Z,30.67
2022-08-29T13:19:12.129Z,29.99
2022-08-29T13:22:03.962Z,31.05
2022-08-29T13:25:04.869Z,30.63
2022-08-29T13:28:01.575Z,30.17
2022-08-29T13:31:22.237Z,29.46
2022-08-29T13:34:20.536Z,31.05
2022-08-29T13:37:30.959Z,29.84
2022-08-29T13:40:36.724Z,30.11
2022-08-29T13:43:36.509Z,30.34
2022-08-29T13:46:30.478Z,30.78
2022-08-29T13:49:20.541Z,30.94
2022-08-29T13:52:10.163Z,30.53
2022-08-29T13:54:58.126Z,30.43
2022-08-29T13:57:50.168Z,29.79
2022-08-29T14:00:38.439Z,29.54
2022-08-29T14:03:26.531Z,29.50
2022-08-29T14:06:16.542Z,28.76
2022-08-29T14:09:05.189Z,29.97
2022-08-29T14:11:53.227Z,29.24
2022-08-29T14:14:42.843Z,29.24
2022-08-29T14:17:30.884Z,30.08
2022-08-29T14:20:19.650Z,29.95
2022-08-29T14:23:07.677Z,29.65
2022-08-29T14:25:55.715Z,29.34
2022-08-29T14:28:47.980Z,29.53
2022-08-29T14:31:38.379Z,28.73
2022-08-29T14:34:30.891Z,29.26
2022-08-29T14:37:21.535Z,30.08
2022-08-29T14:40:10.515Z,29.56
2022-08-29T14:42:59.332Z,29.56
2022-08-29T14:45:47.341Z,28.84
2022-08-29T14:48:37.199Z,29.35
2022-08-29T14:51:25.269Z,29.42
2022-08-29T14:54:13.674Z,29.26
2022-08-29T14:57:01.767Z,29.82
2022-08-29T14:59:50.869Z,29.25
2022-08-29T15:02:38.948Z,29.36
2022-08-29T15:05:28.425Z,29.49
2022-08-29T15:08:16.593Z,29.12
2022-08-29T15:11:04.750Z,29.17
2022-08-29T15:13:52.888Z,29.86
2022-08-29T15:16:41.439Z,29.31
2022-08-29T15:22:38.890Z,29.95
2022-08-29T15:25:27.344Z,29.89
2022-08-29T15:28:15.414Z,29.31
2022-08-29T15:31:03.639Z,30.23
2022-08-29T15:33:51.693Z,30.49
2022-08-29T15:36:39.701Z,30.81
2022-08-29T15:39:29.512Z,30.67
2022-08-29T15:42:17.646Z,30.00
2022-08-29T15:45:08.892Z,30.65
2022-08-29T15:48:00.566Z,30.72
2022-08-29T15:50:50.738Z,30.84
2022-08-29T15:53:39.202Z,30.69
2022-08-29T15:56:35.365Z,31.00
2022-08-29T15:59:41.493Z,31.43
2022-08-29T16:02:33.196Z,31.20
2022-08-29T16:05:22.094Z,31.11
2022-08-29T16:08:10.586Z,31.20
2022-08-29T16:11:05.954Z,31.44
2022-08-29T16:14:15.695Z,31.52
2022-08-29T16:17:05.812Z,31.70
2022-08-29T16:19:54.788Z,31.82
2022-08-29T16:22:43.316Z,31.93
2022-08-29T16:25:33.732Z,32.38
2022-08-29T16:28:21.756Z,32.04
2022-08-29T16:31:11.196Z,32.07
2022-08-29T16:33:59.287Z,32.30
2022-08-29T16:36:47.434Z,32.18
2022-08-29T16:39:35.562Z,32.45
2022-08-29T16:42:27.507Z,32.20
2022-08-29T16:45:17.968Z,32.27
2022-08-29T16:48:14.829Z,33.19
2022-08-29T16:51:06.444Z,32.78
2022-08-29T16:53:54.526Z,32.56
2022-08-29T16:56:42.568Z,33.24
2022-08-29T16:59:31.055Z,33.49
2022-08-29T17:02:19.056Z,34.03
2022-08-29T17:05:08.893Z,34.37
2022-08-29T17:07:55.847Z,34.30
2022-08-29T17:10:42.883Z,34.38
2022-08-29T17:13:30.058Z,34.43
2022-08-29T17:16:19.333Z,34.55
2022-08-29T17:19:07.867Z,34.51
2022-08-29T17:21:57.538Z,34.95
2022-08-29T17:24:47.253Z,35.40
2022-08-29T17:27:35.289Z,35.57
2022-08-29T17:30:23.582Z,35.33
2022-08-29T17:33:11.727Z,35.37
2022-08-29T17:35:59.839Z,36.26
2022-08-29T17:38:49.189Z,36.55
2022-08-29T17:41:38.074Z,37.07
2022-08-29T17:44:27.362Z,36.79
2022-08-29T17:47:15.764Z,37.52
2022-08-29T17:50:04.361Z,37.46
2022-08-29T17:52:53.372Z,37.72
2022-08-29T17:55:42.761Z,38.43
2022-08-29T17:58:30.850Z,38.21
2022-08-29T18:01:18.919Z,38.16
2022-08-29T18:04:07.168Z,38.50
2022-08-29T18:06:55.936Z,39.05
2022-08-29T18:09:43.964Z,38.31
2022-08-29T18:12:33.599Z,38.77
2022-08-29T18:15:21.622Z,39.23
2022-08-29T18:18:11.706Z,39.63
2022-08-29T18:21:00.253Z,39.58
2022-08-29T18:23:48.313Z,39.95
2022-08-29T18:26:36.317Z,40.30
2022-08-29T18:29:25.850Z,40.43
2022-08-29T18:32:13.841Z,40.77
2022-08-29T18:35:01.819Z,40.70
2022-08-29T18:37:49.829Z,41.13
2022-08-29T18:40:39.863Z,41.28
2022-08-29T18:43:28.402Z,41.40
2022-08-29T18:46:18.197Z,41.39
2022-08-29T18:49:06.244Z,41.43
2022-08-29T18:51:54.228Z,41.58
2022-08-29T18:54:43.128Z,40.71
2022-08-29T18:57:31.148Z,41.50
2022-08-29T19:00:19.654Z,41.40
2022-08-29T19:03:09.375Z,41.48
2022-08-29T19:05:57.361Z,41.18
2022-08-29T19:08:45.385Z,41.54
2022-08-29T19:11:33.404Z,41.06
2022-08-29T19:14:21.457Z,41.31
2022-08-29T19:17:09.981Z,41.33
2022-08-29T19:20:17.019Z,41.65
2022-08-29T19:23:06.967Z,41.73
2022-08-29T19:25:55.008Z,41.71
2022-08-29T19:28:43.405Z,41.49
2022-08-29T19:31:32.312Z,42.21
2022-08-29T19:34:20.341Z,41.42
2022-08-29T19:37:10.158Z,41.60
2022-08-29T19:39:58.354Z,41.57
2022-08-29T19:42:46.856Z,41.79
2022-08-29T19:45:35.509Z,41.98
2022-08-29T19:48:23.650Z,42.10
2022-08-29T19:51:13.465Z,42.29
2022-08-29T19:54:03.280Z,42.29
2022-08-29T19:56:52.524Z,42.48
2022-08-29T19:59:40.544Z,42.52
2022-08-29T20:02:30.635Z,42.40
2022-08-29T20:05:19.763Z,42.22
2022-08-29T20:08:10.228Z,42.75
2022-08-29T20:10:59.667Z,42.18
2022-08-29T20:13:50.548Z,42.33
2022-08-29T20:16:39.256Z,41.88
2022-08-29T20:19:27.301Z,42.08
2022-08-29T20:22:15.340Z,42.06
2022-08-29T20:25:09.184Z,41.63
2022-08-29T20:27:59.240Z,41.60
2022-08-29T20:30:47.462Z,41.69
2022-08-29T20:33:41.269Z,41.60
2022-08-29T20:36:46.917Z,41.25
2022-08-29T20:39:35.584Z,41.01
2022-08-29T20:42:25.465Z,40.97
2022-08-29T20:45:15.067Z,41.06
2022-08-29T20:48:03.265Z,41.23
2022-08-29T20:50:59.726Z,41.09
2022-08-29T20:53:47.743Z,41.26
2022-08-29T20:56:35.841Z,41.33
2022-08-29T20:59:26.696Z,41.51
2022-08-29T21:02:16.416Z,41.24
2022-08-29T21:05:22.679Z,41.26
2022-08-29T21:08:18.095Z,41.46
2022-08-29T21:11:06.716Z,41.86
2022-08-29T21:13:55.315Z,42.02
2022-08-29T21:16:43.450Z,42.16
2022-08-29T21:19:34.461Z,41.88
2022-08-29T21:22:24.972Z,42.00
2022-08-29T21:25:13.898Z,41.91
2022-08-29T21:28:02.376Z,42.00
2022-08-29T21:30:54.802Z,41.77
2022-08-29T21:33:44.950Z,41.49
2022-08-29T21:36:36.679Z,41.38
2022-08-29T21:39:28.362Z,41.64
2022-08-29T21:42:17.225Z,41.75
2022-08-29T21:45:06.292Z,41.69
2022-08-29T21:47:56.874Z,41.87
2022-08-29T21:50:45.203Z,41.90
2022-08-29T21:53:34.553Z,42.59
2022-08-29T21:56:31.635Z,42.41
2022-08-29T21:59:21.313Z,42.59
2022-08-29T22:02:09.476Z,42.69
2022-08-29T22:04:57.502Z,42.83
2022-08-29T22:07:46.090Z,42.91
2022-08-29T22:10:37.706Z,42.88
2022-08-29T22:13:25.703Z,42.85
2022-08-29T22:16:31.001Z,43.19
2022-08-29T22:19:19.018Z,43.04
2022-08-29T22:22:07.454Z,43.24
2022-08-29T22:24:55.376Z,43.63
2022-08-29T22:27:45.116Z,43.61
2022-08-29T22:30:33.814Z,43.92
2022-08-29T22:33:22.309Z,44.13
2022-08-29T22:36:12.872Z,43.92
2022-08-29T22:39:01.099Z,44.06
2022-08-29T22:41:49.134Z,44.07
2022-08-29T22:45:02.070Z,44.30
2022-08-29T22:47:47.590Z,44.37
2022-08-29T22:50:36.991Z,44.52
2022-08-29T22:53:24.978Z,44.63
2022-08-29T22:56:15.850Z,45.01
2022-08-29T22:59:04.703Z,45.17
2022-08-29T23:01:54.696Z,45.49
2022-08-29T23:04:43.316Z,45.61
2022-08-29T23:07:31.310Z,45.66
2022-08-29T23:10:21.827Z,45.56
2022-08-29T23:13:11.094Z,45.74
2022-08-29T23:15:59.269Z,45.78
2022-08-29T23:18:48.688Z,45.77
2022-08-29T23:21:38.755Z,45.85
2022-08-29T23:24:28.352Z,45.89
2022-08-29T23:27:16.800Z,45.96
2022-08-29T23:30:08.752Z,46.31
2022-08-29T23:32:56.751Z,46.16
2022-08-29T23:35:46.130Z,46.02
2022-08-29T23:38:34.394Z,45.88
2022-08-29T23:41:22.459Z,46.37
2022-08-29T23:44:10.453Z,45.93
2022-08-29T23:46:58.461Z,45.87
2022-08-29T23:49:46.609Z,45.85
2022-08-29T23:52:36.003Z,45.77
2022-08-29T23:55:23.987Z,45.62
2022-08-29T23:58:14.148Z,45.48
